createdAt,value
2022-08-04T00:02:54.447Z,75.71
2022-08-04T00:05:57.100Z,75.99
2022-08-04T00:08:31.191Z,76.57
2022-08-04T00:11:01.613Z,76.55
2022-08-04T00:13:38.390Z,76.52
2022-08-04T00:16:32.707Z,76.75
2022-08-04T00:19:36.529Z,76.77
2022-08-04T00:22:10.439Z,76.80
2022-08-04T00:24:40.289Z,76.87
2022-08-04T00:27:09.756Z,76.84
2022-08-04T00:29:39.833Z,76.84
2022-08-04T00:32:09.369Z,77.11
2022-08-04T00:34:38.915Z,77.23
2022-08-04T00:37:07.759Z,77.21
2022-08-04T00:39:36.894Z,77.28
2022-08-04T00:42:34.471Z,77.59
2022-08-04T00:46:16.448Z,77.88
2022-08-04T00:49:43.393Z,77.91
2022-08-04T00:52:56.818Z,78.15
2022-08-04T00:56:00.436Z,78.17
2022-08-04T00:59:19.026Z,78.21
2022-08-04T01:02:00.379Z,78.05
2022-08-04T01:05:06.737Z,78.37
2022-08-04T01:08:13.232Z,78.68
2022-08-04T01:10:51.591Z,78.77
2022-08-04T01:14:11.654Z,78.87
2022-08-04T01:16:53.573Z,78.83
2022-08-04T01:19:54.352Z,79.00
2022-08-04T01:22:34.555Z,79.30
2022-08-04T01:25:42.159Z,79.48
2022-08-04T01:28:38.924Z,79.64
2022-08-04T01:31:50.260Z,79.60
2022-08-04T01:34:22.224Z,79.67
2022-08-04T01:37:12.892Z,79.79
2022-08-04T01:40:02.296Z,80.13
2022-08-04T01:42:34.287Z,80.30
2022-08-04T01:45:11.605Z,80.36
2022-08-04T01:47:58.646Z,80.58
2022-08-04T01:50:28.468Z,80.69
2022-08-04T01:52:57.397Z,80.63
2022-08-04T01:55:54.845Z,80.75
2022-08-04T01:58:20.813Z,80.95
2022-08-04T02:01:11.503Z,81.09
2022-08-04T02:04:19.592Z,81.16
2022-08-04T02:07:01.195Z,81.30
2022-08-04T02:10:07.601Z,81.33
2022-08-04T02:12:44.962Z,81.51
2022-08-04T02:15:36.750Z,81.49
2022-08-04T02:18:28.410Z,81.82
2022-08-04T02:21:02.739Z,81.85
2022-08-04T02:23:37.571Z,81.84
2022-08-04T02:26:22.350Z,82.02
2022-08-04T02:28:57.375Z,82.21
2022-08-04T02:31:33.639Z,82.26
2022-08-04T02:34:25.952Z,82.25
2022-08-04T02:36:56.009Z,82.47
2022-08-04T02:39:31.596Z,82.64
2022-08-04T02:42:17.579Z,82.61
2022-08-04T02:44:58.301Z,82.68
2022-08-04T02:48:08.046Z,82.92
2022-08-04T02:50:28.625Z,83.10
2022-08-04T02:53:00.773Z,83.34
2022-08-04T02:55:30.594Z,83.31
2022-08-04T02:58:02.851Z,83.38
2022-08-04T03:00:32.377Z,83.40
2022-08-04T03:03:36.601Z,83.65
2022-08-04T03:06:11.575Z,83.79
2022-08-04T03:08:52.087Z,83.94
2022-08-04T03:11:48.826Z,84.05
2022-08-04T03:14:55.332Z,84.30
2022-08-04T03:17:52.828Z,84.41
2022-08-04T03:20:44.697Z,84.58
2022-08-04T03:24:07.451Z,84.73
2022-08-04T03:26:57.762Z,84.90
2022-08-04T03:30:13.535Z,85.05
2022-08-04T03:33:24.690Z,85.14
2022-08-04T03:36:31.941Z,85.33
2022-08-04T03:39:31.307Z,85.54
2022-08-04T03:42:15.640Z,85.45
2022-08-04T03:45:20.549Z,85.61
2022-08-04T03:48:26.939Z,85.56
2022-08-04T03:52:10.988Z,85.61
2022-08-04T03:55:07.756Z,85.71
2022-08-04T03:57:51.619Z,85.93
2022-08-04T04:00:30.098Z,86.00
2022-08-04T04:03:31.525Z,86.39
2022-08-04T04:06:17.983Z,86.52
2022-08-04T04:09:18.820Z,86.58
2022-08-04T04:12:20.002Z,86.76
2022-08-04T04:15:14.350Z,86.75
2022-08-04T04:18:03.531Z,86.90
2022-08-04T04:21:16.301Z,87.19
2022-08-04T04:24:01.994Z,87.19
2022-08-04T04:27:04.184Z,87.20
2022-08-04T04:30:19.928Z,87.23
2022-08-04T04:33:23.062Z,87.47
2022-08-04T04:36:17.939Z,87.56
2022-08-04T04:38:55.478Z,87.61
2022-08-04T04:41:23.939Z,87.76
2022-08-04T04:44:30.917Z,87.70
2022-08-04T04:48:01.677Z,88.10
2022-08-04T04:50:36.413Z,88.17
2022-08-04T04:53:25.977Z,88.47
2022-08-04T04:56:35.349Z,88.51
2022-08-04T04:59:17.165Z,88.69
2022-08-04T05:02:30.457Z,88.70
2022-08-04T05:05:42.486Z,88.83
2022-08-04T05:08:43.670Z,88.69
2022-08-04T05:11:38.611Z,88.92
2022-08-04T05:14:38.962Z,88.98
2022-08-04T05:17:28.291Z,88.94
2022-08-04T05:20:07.045Z,88.89
2022-08-04T05:23:11.386Z,88.59
2022-08-04T05:25:59.672Z,88.50
2022-08-04T05:28:41.274Z,88.51
2022-08-04T05:31:29.276Z,88.27
2022-08-04T05:34:09.664Z,88.20
2022-08-04T05:36:51.017Z,88.05
2022-08-04T05:39:31.064Z,87.88
2022-08-04T05:42:05.069Z,87.63
2022-08-04T05:44:37.128Z,87.70
2022-08-04T05:47:07.308Z,87.55
2022-08-04T05:49:38.705Z,87.61
2022-08-04T05:52:10.175Z,87.25
2022-08-04T05:54:40.414Z,86.77
2022-08-04T05:57:10.770Z,86.38
2022-08-04T05:59:46.634Z,86.04
2022-08-04T06:02:18.529Z,85.93
2022-08-04T06:04:51.374Z,86.06
2022-08-04T06:07:20.389Z,85.43
2022-08-04T06:09:49.511Z,85.50
2022-08-04T06:12:36.259Z,85.67
2022-08-04T06:15:07.525Z,85.56
2022-08-04T06:19:58.440Z,85.44
2022-08-04T06:20:54.317Z,85.22
2022-08-04T06:23:27.081Z,84.90
2022-08-04T06:26:00.849Z,84.77
2022-08-04T06:28:31.736Z,84.43
2022-08-04T06:32:31.797Z,84.17
2022-08-04T06:33:56.514Z,84.11
2022-08-04T06:36:25.451Z,84.12
2022-08-04T06:38:58.730Z,83.71
2022-08-04T06:41:30.394Z,83.04
2022-08-04T06:44:02.548Z,82.80
2022-08-04T06:46:34.459Z,82.90
2022-08-04T06:49:04.985Z,82.53
2022-08-04T06:51:45.258Z,82.01
2022-08-04T06:54:17.744Z,81.48
2022-08-04T06:56:50.530Z,81.01
2022-08-04T06:59:22.471Z,80.58
2022-08-04T07:01:53.209Z,80.07
2022-08-04T07:04:25.241Z,79.56
2022-08-04T07:06:54.843Z,79.29
2022-08-04T07:09:27.927Z,79.08
2022-08-04T07:11:56.728Z,78.78
2022-08-04T07:14:27.267Z,78.16
2022-08-04T07:16:58.301Z,77.83
2022-08-04T07:19:26.937Z,77.42
2022-08-04T07:22:24.811Z,76.96
2022-08-04T07:24:45.199Z,76.81
2022-08-04T07:27:13.943Z,76.58
2022-08-04T07:29:42.910Z,76.42
2022-08-04T07:32:13.856Z,75.59
2022-08-04T07:34:43.850Z,74.93
2022-08-04T07:37:20.254Z,74.74
2022-08-04T07:39:49.217Z,74.35
2022-08-04T07:42:21.823Z,74.23
2022-08-04T07:44:50.609Z,74.11
2022-08-04T07:47:25.173Z,73.83
2022-08-04T07:49:57.741Z,74.01
2022-08-04T07:52:27.953Z,73.38
2022-08-04T07:54:56.876Z,73.36
2022-08-04T07:57:41.110Z,73.30
2022-08-04T08:00:14.954Z,73.07
2022-08-04T08:02:48.377Z,72.65
2022-08-04T08:05:19.491Z,72.79
2022-08-04T08:07:54.711Z,72.71
2022-08-04T08:10:25.197Z,72.35
2022-08-04T08:12:54.644Z,71.74
2022-08-04T08:15:23.501Z,71.58
2022-08-04T08:17:58.210Z,71.27
2022-08-04T08:20:31.964Z,71.29
2022-08-04T08:23:02.982Z,70.90
2022-08-04T08:25:33.812Z,70.56
2022-08-04T08:28:05.373Z,70.12
2022-08-04T08:30:35.460Z,69.82
2022-08-04T08:33:09.976Z,69.30
2022-08-04T08:36:10.038Z,69.01
2022-08-04T08:38:49.846Z,68.66
2022-08-04T08:42:11.039Z,68.24
2022-08-04T08:45:24.490Z,67.67
2022-08-04T08:48:33.332Z,67.49
2022-08-04T08:52:08.316Z,66.88
2022-08-04T08:54:54.887Z,66.72
2022-08-04T08:58:00.334Z,66.39
2022-08-04T09:00:51.048Z,65.48
2022-08-04T09:03:56.464Z,65.24
2022-08-04T09:06:56.963Z,64.25
2022-08-04T09:10:10.081Z,63.30
2022-08-04T09:13:03.038Z,62.56
2022-08-04T09:15:45.601Z,61.62
2022-08-04T09:18:46.110Z,61.53
2022-08-04T09:21:40.427Z,61.81
2022-08-04T09:24:36.758Z,61.88
2022-08-04T09:27:24.698Z,62.20
2022-08-04T09:30:04.635Z,62.32
2022-08-04T09:32:38.976Z,62.17
2022-08-04T09:35:25.662Z,62.05
2022-08-04T09:38:20.104Z,61.40
2022-08-04T09:41:24.828Z,61.27
2022-08-04T09:44:50.316Z,60.58
2022-08-04T09:47:39.361Z,59.57
2022-08-04T09:50:16.978Z,60.11
2022-08-04T09:53:31.411Z,60.00
2022-08-04T09:56:03.587Z,59.20
2022-08-04T09:59:01.729Z,58.60
2022-08-04T10:01:32.253Z,58.15
2022-08-04T10:04:12.775Z,58.07
2022-08-04T10:07:25.346Z,57.60
2022-08-04T10:10:15.820Z,57.06
2022-08-04T10:12:49.726Z,56.73
2022-08-04T10:15:33.180Z,56.67
2022-08-04T10:18:10.549Z,56.25
2022-08-04T10:21:15.683Z,54.31
2022-08-04T10:24:32.966Z,53.53
2022-08-04T10:27:30.641Z,53.37
2022-08-04T10:30:13.971Z,53.23
2022-08-04T10:33:12.080Z,54.02
2022-08-04T10:36:05.308Z,54.49
2022-08-04T10:39:43.163Z,54.61
2022-08-04T10:42:17.211Z,54.74
2022-08-04T10:45:06.263Z,54.35
2022-08-04T10:47:44.004Z,53.91
2022-08-04T10:50:25.574Z,53.91
2022-08-04T10:53:10.358Z,53.64
2022-08-04T10:56:06.986Z,53.50
2022-08-04T10:58:46.911Z,53.23
2022-08-04T11:01:50.757Z,52.67
2022-08-04T11:04:47.086Z,52.21
2022-08-04T11:07:17.417Z,52.02
2022-08-04T11:09:46.868Z,51.71
2022-08-04T11:12:23.407Z,51.67
2022-08-04T11:14:58.897Z,50.93
2022-08-04T11:17:53.837Z,50.46
2022-08-04T11:20:43.702Z,49.61
2022-08-04T11:23:24.042Z,47.03
2022-08-04T11:26:15.800Z,47.06
2022-08-04T11:29:05.834Z,47.47
2022-08-04T11:31:47.244Z,47.79
2022-08-04T11:34:23.034Z,47.95
2022-08-04T11:37:14.019Z,49.01
2022-08-04T11:39:59.412Z,49.42
2022-08-04T11:42:36.500Z,49.18
2022-08-04T11:45:15.828Z,48.97
2022-08-04T11:48:06.731Z,49.01
2022-08-04T11:50:46.081Z,48.99
2022-08-04T11:53:21.913Z,48.68
2022-08-04T11:56:07.891Z,48.52
2022-08-04T11:58:39.133Z,48.44
2022-08-04T12:01:35.094Z,47.76
2022-08-04T12:04:42.179Z,47.49
2022-08-04T12:07:59.275Z,47.22
2022-08-04T12:10:51.261Z,46.89
2022-08-04T12:13:40.963Z,46.83
2022-08-04T12:16:15.148Z,46.75
2022-08-04T12:18:59.171Z,45.05
2022-08-04T12:21:50.406Z,43.47
2022-08-04T12:24:29.893Z,43.20
2022-08-04T12:27:07.237Z,43.19
2022-08-04T12:29:40.561Z,43.54
2022-08-04T12:32:19.243Z,43.87
2022-08-04T12:35:23.527Z,44.75
2022-08-04T12:38:09.186Z,45.32
2022-08-04T12:40:52.322Z,45.27
2022-08-04T12:43:30.253Z,45.11
2022-08-04T12:46:06.083Z,45.14
2022-08-04T12:48:39.233Z,44.72
2022-08-04T12:52:05.894Z,43.93
2022-08-04T12:53:59.361Z,44.02
2022-08-04T12:56:29.878Z,43.77
2022-08-04T12:59:12.618Z,43.40
2022-08-04T13:02:09.582Z,42.99
2022-08-04T13:04:51.244Z,43.12
2022-08-04T13:07:24.944Z,43.70
2022-08-04T13:09:53.814Z,43.76
2022-08-04T13:12:32.518Z,43.86
2022-08-04T13:15:18.062Z,41.81
2022-08-04T13:18:04.896Z,41.05
2022-08-04T13:20:37.733Z,40.12
2022-08-04T13:23:14.579Z,39.80
2022-08-04T13:26:43.023Z,40.14
2022-08-04T13:28:49.627Z,40.20
2022-08-04T13:31:24.665Z,41.62
2022-08-04T13:34:02.619Z,41.98
2022-08-04T13:36:32.723Z,42.00
2022-08-04T13:39:16.114Z,42.10
2022-08-04T13:41:59.098Z,42.03
2022-08-04T13:44:34.525Z,42.26
2022-08-04T13:47:16.083Z,41.96
2022-08-04T13:50:22.691Z,41.62
2022-08-04T13:52:54.837Z,41.29
2022-08-04T13:55:25.987Z,41.09
2022-08-04T13:58:02.046Z,40.93
2022-08-04T14:00:58.980Z,40.96
2022-08-04T14:03:54.110Z,41.29
2022-08-04T14:06:36.184Z,41.33
2022-08-04T14:09:23.516Z,38.87
2022-08-04T14:12:38.628Z,38.14
2022-08-04T14:15:02.905Z,38.02
2022-08-04T14:17:31.815Z,38.60
2022-08-04T14:20:02.614Z,39.06
2022-08-04T14:22:35.136Z,39.70
2022-08-04T14:25:15.699Z,40.53
2022-08-04T14:27:57.439Z,40.63
2022-08-04T14:30:37.810Z,40.97
2022-08-04T14:34:03.961Z,41.39
2022-08-04T14:36:03.961Z,41.86
2022-08-04T14:38:43.341Z,41.55
2022-08-04T14:41:13.835Z,41.68
2022-08-04T14:43:52.520Z,41.60
2022-08-04T14:46:23.703Z,41.21
2022-08-04T14:49:10.937Z,41.06
2022-08-04T14:51:46.906Z,40.84
2022-08-04T14:54:18.774Z,41.01
2022-08-04T14:56:59.031Z,41.01
2022-08-04T14:59:40.202Z,40.93
2022-08-04T15:02:15.158Z,38.97
2022-08-04T15:04:46.135Z,38.48
2022-08-04T15:07:16.864Z,38.78
2022-08-04T15:09:45.764Z,38.99
2022-08-04T15:12:44.557Z,39.17
2022-08-04T15:15:35.911Z,39.94
2022-08-04T15:18:10.868Z,41.09
2022-08-04T15:20:42.367Z,41.36
2022-08-04T15:23:11.163Z,41.49
2022-08-04T15:25:48.245Z,41.87
2022-08-04T15:28:20.339Z,41.28
2022-08-04T15:30:55.095Z,41.38
2022-08-04T15:33:33.556Z,40.74
2022-08-04T15:36:14.723Z,40.62
2022-08-04T15:39:12.573Z,40.97
2022-08-04T15:42:23.177Z,40.73
2022-08-04T15:44:51.785Z,40.76
2022-08-04T15:47:20.954Z,38.90
2022-08-04T15:50:12.478Z,37.50
2022-08-04T15:53:01.336Z,37.11
2022-08-04T15:55:43.962Z,37.54
2022-08-04T15:58:15.177Z,37.82
2022-08-04T16:00:49.677Z,38.05
2022-08-04T16:03:55.413Z,38.86
2022-08-04T16:06:22.603Z,39.88
2022-08-04T16:08:52.630Z,40.06
2022-08-04T16:11:31.351Z,40.33
2022-08-04T16:14:03.751Z,40.37
2022-08-04T16:16:50.203Z,40.23
2022-08-04T16:19:55.102Z,40.00
2022-08-04T16:22:40.705Z,39.99
2022-08-04T16:25:10.138Z,40.00
2022-08-04T16:27:42.898Z,39.99
2022-08-04T16:30:15.103Z,40.14
2022-08-04T16:32:48.867Z,40.09
2022-08-04T16:35:28.943Z,39.84
2022-08-04T16:38:15.894Z,39.61
2022-08-04T16:40:44.908Z,38.13
2022-08-04T16:43:16.203Z,36.38
2022-08-04T16:46:04.807Z,36.27
2022-08-04T16:48:36.528Z,36.61
2022-08-04T16:51:13.256Z,37.01
2022-08-04T16:53:53.803Z,37.60
2022-08-04T16:56:35.532Z,38.50
2022-08-04T16:59:12.895Z,39.21
2022-08-04T17:01:51.116Z,39.42
2022-08-04T17:04:31.505Z,39.58
2022-08-04T17:07:03.456Z,39.41
2022-08-04T17:09:33.401Z,39.57
2022-08-04T17:12:02.877Z,39.44
2022-08-04T17:14:31.689Z,39.43
2022-08-04T17:17:02.559Z,39.45
2022-08-04T17:19:31.067Z,39.24
2022-08-04T17:22:10.096Z,39.23
2022-08-04T17:24:41.095Z,38.88
2022-08-04T17:28:09.406Z,38.89
2022-08-04T17:29:59.865Z,39.09
2022-08-04T17:32:28.528Z,38.92
2022-08-04T17:35:02.145Z,38.64
2022-08-04T17:37:41.052Z,38.46
2022-08-04T17:44:00.947Z,37.35
2022-08-04T17:46:28.821Z,38.59
2022-08-04T17:49:16.535Z,39.61
2022-08-04T17:52:05.355Z,40.23
2022-08-04T17:54:40.676Z,40.78
2022-08-04T17:57:23.355Z,41.56
2022-08-04T17:59:56.376Z,42.01
2022-08-04T18:02:34.398Z,42.00
2022-08-04T18:05:11.404Z,42.14
2022-08-04T18:08:39.250Z,42.24
2022-08-04T18:10:52.020Z,42.53
2022-08-04T18:13:27.443Z,42.98
2022-08-04T18:16:14.372Z,43.28
2022-08-04T18:19:12.432Z,43.84
2022-08-04T18:21:46.142Z,44.45
2022-08-04T18:24:36.113Z,44.81
2022-08-04T18:27:24.080Z,45.12
2022-08-04T18:30:32.432Z,45.78
2022-08-04T18:33:24.731Z,46.05
2022-08-04T18:36:32.795Z,46.57
2022-08-04T18:38:25.223Z,46.90
2022-08-04T18:40:54.732Z,47.15
2022-08-04T18:43:27.962Z,48.78
2022-08-04T18:45:59.727Z,49.43
2022-08-04T18:48:35.919Z,50.25
2022-08-04T18:51:22.712Z,50.93
2022-08-04T18:53:59.050Z,51.78
2022-08-04T18:56:31.899Z,52.29
2022-08-04T18:59:03.713Z,52.98
2022-08-04T19:02:12.738Z,52.83
2022-08-04T19:04:36.524Z,53.15
2022-08-04T19:07:23.482Z,53.28
2022-08-04T19:09:57.837Z,53.56
2022-08-04T19:12:28.782Z,53.81
2022-08-04T19:15:10.589Z,54.11
2022-08-04T19:17:55.142Z,54.23
2022-08-04T19:20:28.357Z,54.71
2022-08-04T19:24:29.899Z,54.79
2022-08-04T19:26:01.136Z,54.96
2022-08-04T19:28:36.544Z,55.25
2022-08-04T19:31:08.977Z,55.31
2022-08-04T19:33:58.066Z,55.51
2022-08-04T19:36:31.073Z,55.55
2022-08-04T19:39:09.172Z,55.79
2022-08-04T19:42:05.769Z,56.05
2022-08-04T19:44:31.492Z,56.22
2022-08-04T19:47:00.741Z,56.54
2022-08-04T19:50:05.282Z,56.70
2022-08-04T19:52:34.098Z,56.96
2022-08-04T19:55:10.115Z,57.31
2022-08-04T19:57:46.570Z,57.35
2022-08-04T20:00:33.319Z,57.72
2022-08-04T20:03:03.711Z,57.94
2022-08-04T20:05:53.235Z,58.24
2022-08-04T20:08:29.708Z,58.56
2022-08-04T20:11:00.235Z,58.70
2022-08-04T20:13:37.300Z,60.59
2022-08-04T20:16:20.248Z,61.00
2022-08-04T20:19:00.950Z,61.35
2022-08-04T20:21:53.580Z,61.45
2022-08-04T20:24:37.844Z,61.93
2022-08-04T20:27:15.344Z,61.84
2022-08-04T20:29:49.220Z,61.42
2022-08-04T20:32:28.007Z,61.27
2022-08-04T20:34:58.130Z,61.50
2022-08-04T20:37:56.896Z,61.66
2022-08-04T20:40:16.891Z,61.72
2022-08-04T20:42:48.204Z,61.74
2022-08-04T20:45:18.226Z,61.96
2022-08-04T20:47:53.294Z,62.18
2022-08-04T20:50:29.856Z,62.18
2022-08-04T20:52:59.393Z,62.29
2022-08-04T20:55:29.536Z,62.22
2022-08-04T20:58:02.987Z,62.52
2022-08-04T21:00:32.580Z,62.57
2022-08-04T21:03:01.380Z,62.84
2022-08-04T21:05:31.658Z,62.87
2022-08-04T21:08:00.445Z,62.96
2022-08-04T21:10:31.065Z,63.18
2022-08-04T21:12:59.684Z,63.31
2022-08-04T21:15:58.686Z,63.41
2022-08-04T21:18:17.140Z,63.58
2022-08-04T21:20:48.235Z,63.61
2022-08-04T21:23:17.139Z,63.81
2022-08-04T21:25:51.012Z,63.91
2022-08-04T21:28:20.204Z,64.03
2022-08-04T21:30:53.916Z,64.13
2022-08-04T21:39:04.307Z,64.51
2022-08-04T21:42:19.731Z,64.68
2022-08-04T21:44:29.677Z,64.77
2022-08-04T21:46:58.224Z,64.86
2022-08-04T21:49:26.710Z,64.85
2022-08-04T21:51:58.409Z,64.98
2022-08-04T21:54:29.477Z,65.11
2022-08-04T21:56:58.014Z,65.23
2022-08-04T21:59:30.523Z,65.50
2022-08-04T22:02:01.772Z,65.63
2022-08-04T22:04:31.082Z,65.76
2022-08-04T22:07:03.310Z,65.80
2022-08-04T22:09:38.717Z,65.99
2022-08-04T22:12:11.682Z,66.03
2022-08-04T22:14:40.726Z,67.03
2022-08-04T22:17:20.602Z,68.51
2022-08-04T22:19:55.840Z,68.44
2022-08-04T22:22:29.533Z,68.53
2022-08-04T22:25:12.318Z,68.65
2022-08-04T22:28:02.756Z,68.62
2022-08-04T22:30:36.977Z,67.99
2022-08-04T22:33:08.892Z,67.70
2022-08-04T22:35:49.091Z,67.67
2022-08-04T22:38:28.032Z,67.66
2022-08-04T22:41:15.844Z,67.68
2022-08-04T22:43:55.049Z,67.77
2022-08-04T22:46:26.764Z,67.80
2022-08-04T22:48:56.792Z,67.92
2022-08-04T22:51:27.023Z,68.07
2022-08-04T22:53:55.909Z,68.02
2022-08-04T22:56:38.282Z,68.14
2022-08-04T22:59:10.001Z,68.31
2022-08-04T23:02:01.152Z,68.35
2022-08-04T23:04:31.007Z,68.47
2022-08-04T23:07:01.311Z,68.60
2022-08-04T23:09:49.043Z,68.56
2022-08-04T23:12:25.887Z,68.72
2022-08-04T23:14:58.158Z,68.69
2022-08-04T23:17:28.711Z,68.66
2022-08-04T23:19:59.674Z,68.79
2022-08-04T23:22:40.974Z,68.83
2022-08-04T23:25:15.890Z,68.91
2022-08-04T23:27:50.938Z,69.00
2022-08-04T23:30:29.900Z,69.05
2022-08-04T23:32:59.216Z,69.14
2022-08-04T23:35:28.044Z,69.28
2022-08-04T23:37:59.922Z,69.33
2022-08-04T23:40:49.988Z,69.36
2022-08-04T23:43:19.756Z,69.34
2022-08-04T23:46:06.908Z,69.48
2022-08-04T23:48:38.845Z,69.70
2022-08-04T23:51:14.370Z,69.74
2022-08-04T23:54:02.464Z,69.80
2022-08-04T23:56:34.660Z,69.88
2022-08-04T23:59:04.621Z,70.03
